createdAt,value
2018-07-10T00:04:24.690Z,49.94
2018-07-10T00:09:07.566Z,50.18
2018-07-10T00:11:36.150Z,50.64
2018-07-10T00:14:04.741Z,50.77
2018-07-10T00:16:33.370Z,50.71
2018-07-10T00:19:01.981Z,51.20
2018-07-10T00:21:30.617Z,51.38
2018-07-10T00:23:59.220Z,50.70
2018-07-10T00:26:27.857Z,50.51
2018-07-10T00:28:56.514Z,51.16
2018-07-10T00:31:25.117Z,51.74
2018-07-10T00:33:53.940Z,51.43
2018-07-10T00:36:22.593Z,51.19
2018-07-10T00:39:01.853Z,50.95
2018-07-10T00:41:33.909Z,51.61
2018-07-10T00:44:03.328Z,51.72
2018-07-10T00:46:33.880Z,52.35
2018-07-10T00:49:02.642Z,52.73
2018-07-10T00:51:35.702Z,52.90
2018-07-10T00:54:04.421Z,51.61
2018-07-10T00:56:33.041Z,50.78
2018-07-10T00:59:04.659Z,51.10
2018-07-10T01:01:33.886Z,50.51
2018-07-10T01:04:02.544Z,50.73
2018-07-10T01:06:31.421Z,50.71
2018-07-10T01:09:00.022Z,50.50
2018-07-10T01:11:29.107Z,50.80
2018-07-10T01:13:57.797Z,50.38
2018-07-10T01:16:33.738Z,50.63
2018-07-10T01:19:04.593Z,50.69
2018-07-10T01:21:33.255Z,50.70
2018-07-10T01:24:04.046Z,50.85
2018-07-10T01:26:34.941Z,51.48
2018-07-10T01:29:09.760Z,51.79
2018-07-10T01:31:40.510Z,52.11
2018-07-10T01:34:09.143Z,53.61
2018-07-10T01:36:37.790Z,54.43
2018-07-10T01:39:06.945Z,54.94
2018-07-10T01:41:36.209Z,55.32
2018-07-10T01:44:04.908Z,55.61
2018-07-10T01:46:33.577Z,55.78
2018-07-10T01:49:02.353Z,56.72
2018-07-10T01:51:32.201Z,56.80
2018-07-10T01:54:00.905Z,56.97
2018-07-10T01:56:29.982Z,56.91
2018-07-10T01:58:58.759Z,56.82
2018-07-10T02:01:27.419Z,57.16
2018-07-10T02:03:57.551Z,56.83
2018-07-10T02:06:26.233Z,57.47
2018-07-10T02:08:55.091Z,57.56
2018-07-10T02:11:23.780Z,57.92
2018-07-10T02:13:52.427Z,58.48
2018-07-10T02:16:21.059Z,58.96
2018-07-10T02:18:49.894Z,59.60
2018-07-10T02:21:18.555Z,59.83
2018-07-10T02:23:47.419Z,60.24
2018-07-10T02:26:27.969Z,61.37
2018-07-10T02:28:57.128Z,61.38
2018-07-10T02:31:25.787Z,61.95
2018-07-10T02:33:54.757Z,62.12
2018-07-10T02:36:24.262Z,62.62
2018-07-10T02:38:58.200Z,63.06
2018-07-10T02:41:27.007Z,63.82
2018-07-10T02:43:59.965Z,63.98
2018-07-10T02:46:29.667Z,63.93
2018-07-10T02:49:02.953Z,64.48
2018-07-10T02:51:31.695Z,65.28
2018-07-10T02:54:00.390Z,65.55
2018-07-10T02:56:29.085Z,66.43
2018-07-10T02:59:01.695Z,66.00
2018-07-10T03:01:30.369Z,66.13
2018-07-10T03:03:59.820Z,67.02
2018-07-10T03:06:28.556Z,67.33
2018-07-10T03:08:57.417Z,67.06
2018-07-10T03:11:26.083Z,66.68
2018-07-10T03:13:54.716Z,66.64
2018-07-10T03:16:23.398Z,66.59
2018-07-10T03:18:52.214Z,66.45
2018-07-10T03:21:20.816Z,66.52
2018-07-10T03:23:49.456Z,66.08
2018-07-10T03:26:18.109Z,66.23
2018-07-10T03:28:46.749Z,65.93
2018-07-10T03:31:15.365Z,65.66
2018-07-10T03:33:44.087Z,65.62
2018-07-10T03:36:12.789Z,65.20
2018-07-10T03:38:42.163Z,65.02
2018-07-10T03:41:10.822Z,64.62
2018-07-10T03:43:39.481Z,65.05
2018-07-10T03:46:08.167Z,64.39
2018-07-10T03:48:36.805Z,64.68
2018-07-10T03:51:05.439Z,64.66
2018-07-10T03:53:34.114Z,64.14
2018-07-10T03:56:02.762Z,63.70
2018-07-10T03:58:31.498Z,62.80
2018-07-10T04:01:00.387Z,62.04
2018-07-10T04:03:32.210Z,60.83
2018-07-10T04:06:01.429Z,60.41
2018-07-10T04:08:30.566Z,59.89
2018-07-10T04:11:00.560Z,59.37
2018-07-10T04:13:29.213Z,59.13
2018-07-10T04:16:00.160Z,59.06
2018-07-10T04:18:29.969Z,58.60
2018-07-10T04:21:06.066Z,58.21
2018-07-10T04:23:36.320Z,57.89
2018-07-10T04:26:13.266Z,57.64
2018-07-10T04:28:42.124Z,57.60
2018-07-10T04:31:47.853Z,58.82
2018-07-10T04:34:16.605Z,56.81
2018-07-10T04:36:45.279Z,54.40
2018-07-10T04:39:13.936Z,53.63
2018-07-10T04:41:43.466Z,52.90
2018-07-10T04:44:13.705Z,52.53
2018-07-10T04:46:45.603Z,52.31
2018-07-10T04:49:36.062Z,51.96
2018-07-10T04:52:17.643Z,51.13
2018-07-10T04:54:56.251Z,50.66
2018-07-10T04:57:32.481Z,50.63
2018-07-10T05:00:05.022Z,50.20
2018-07-10T05:02:34.585Z,49.83
2018-07-10T05:05:03.259Z,50.10
2018-07-10T05:07:31.957Z,51.09
2018-07-10T05:10:00.775Z,50.55
2018-07-10T05:12:29.443Z,50.56
2018-07-10T05:14:58.148Z,50.69
2018-07-10T05:17:26.788Z,51.20
2018-07-10T05:19:56.118Z,50.75
2018-07-10T05:22:25.509Z,50.29
2018-07-10T05:24:54.264Z,49.80
2018-07-10T05:27:22.901Z,49.00
2018-07-10T05:29:51.801Z,49.04
2018-07-10T05:32:20.447Z,49.56
2018-07-10T05:34:49.120Z,48.63
2018-07-10T05:37:28.666Z,49.02
2018-07-10T05:39:58.682Z,49.62
2018-07-10T05:42:27.395Z,49.61
2018-07-10T05:44:56.056Z,49.44
2018-07-10T05:47:25.597Z,50.03
2018-07-10T05:49:57.938Z,49.95
2018-07-10T05:52:26.669Z,49.98
2018-07-10T05:54:55.571Z,49.61
2018-07-10T05:57:24.233Z,49.16
2018-07-10T05:59:52.911Z,49.13
2018-07-10T06:02:21.593Z,49.47
2018-07-10T06:04:50.257Z,49.92
2018-07-10T06:07:19.225Z,50.76
2018-07-10T06:09:47.867Z,51.02
2018-07-10T06:12:16.957Z,51.14
2018-07-10T06:14:45.594Z,50.49
2018-07-10T06:17:14.235Z,49.62
2018-07-10T06:19:43.031Z,49.59
2018-07-10T06:22:11.825Z,50.04
2018-07-10T06:24:40.452Z,49.56
2018-07-10T06:27:09.226Z,49.12
2018-07-10T06:30:02.979Z,48.92
2018-07-10T06:32:41.561Z,49.56
2018-07-10T06:35:10.281Z,49.15
2018-07-10T06:37:42.673Z,49.56
2018-07-10T06:40:11.301Z,49.13
2018-07-10T06:42:52.117Z,48.96
2018-07-10T06:45:20.854Z,48.91
2018-07-10T06:47:50.500Z,48.19
2018-07-10T06:50:21.924Z,47.61
2018-07-10T06:52:52.722Z,48.00
2018-07-10T06:55:21.316Z,48.26
2018-07-10T06:57:53.856Z,48.62
2018-07-10T07:00:22.545Z,48.28
2018-07-10T07:02:51.329Z,47.68
2018-07-10T07:05:20.237Z,46.74
2018-07-10T07:07:48.879Z,46.60
2018-07-10T07:10:17.960Z,44.97
2018-07-10T07:12:47.040Z,45.49
2018-07-10T07:15:20.437Z,45.10
2018-07-10T07:17:53.254Z,45.09
2018-07-10T07:20:22.809Z,44.34
2018-07-10T07:22:51.908Z,43.46
2018-07-10T07:25:20.567Z,42.62
2018-07-10T07:27:49.222Z,41.35
2018-07-10T07:30:18.046Z,40.63
2018-07-10T07:32:46.725Z,39.69
2018-07-10T07:35:15.421Z,39.71
2018-07-10T07:37:44.074Z,38.72
2018-07-10T07:40:13.245Z,36.45
2018-07-10T07:42:42.189Z,36.20
2018-07-10T07:45:10.944Z,37.26
2018-07-10T07:47:39.621Z,36.78
2018-07-10T07:50:08.238Z,37.24
2018-07-10T07:52:37.058Z,36.62
2018-07-10T07:55:05.753Z,36.02
2018-07-10T07:57:34.423Z,35.93
2018-07-10T08:00:03.109Z,35.84
2018-07-10T08:02:31.799Z,36.68
2018-07-10T08:05:00.533Z,37.03
2018-07-10T08:07:29.264Z,37.09
2018-07-10T08:09:58.570Z,37.16
2018-07-10T08:12:28.885Z,36.89
2018-07-10T08:14:57.994Z,36.10
2018-07-10T08:17:26.744Z,35.94
2018-07-10T08:19:57.017Z,35.88
2018-07-10T08:22:26.594Z,34.59
2018-07-10T08:37:46.454Z,33.15
2018-07-10T08:40:15.166Z,32.20
2018-07-10T08:42:43.964Z,32.82
2018-07-10T08:45:13.486Z,31.32
2018-07-10T08:47:42.349Z,32.11
2018-07-10T08:50:11.672Z,31.61
2018-07-10T08:52:40.463Z,31.99
2018-07-10T08:55:09.119Z,32.86
2018-07-10T08:57:37.810Z,32.34
2018-07-10T09:00:06.586Z,31.47
2018-07-10T09:02:35.316Z,31.42
2018-07-10T09:05:04.193Z,32.02
2018-07-10T09:07:32.932Z,31.82
2018-07-10T09:10:02.203Z,30.86
2018-07-10T09:12:30.863Z,31.04
2018-07-10T09:14:59.572Z,31.11
2018-07-10T09:17:28.766Z,30.64
2018-07-10T09:19:59.286Z,30.52
2018-07-10T09:22:27.998Z,30.82
2018-07-10T09:24:57.540Z,30.82
2018-07-10T09:27:26.204Z,30.59
2018-07-10T09:29:55.035Z,30.69
2018-07-10T09:32:29.683Z,30.33
2018-07-10T09:34:59.185Z,30.57
2018-07-10T09:37:35.451Z,30.54
2018-07-10T09:40:09.564Z,31.07
2018-07-10T09:42:43.817Z,30.60
2018-07-10T09:45:12.591Z,29.35
2018-07-10T09:47:41.330Z,30.01
2018-07-10T09:50:09.973Z,30.65
2018-07-10T09:52:38.613Z,30.63
2018-07-10T09:55:07.321Z,30.31
2018-07-10T09:57:35.993Z,30.03
2018-07-10T10:00:04.828Z,30.27
2018-07-10T10:02:34.753Z,31.33
2018-07-10T10:05:05.625Z,30.89
2018-07-10T10:07:34.311Z,31.00
2018-07-10T10:10:03.917Z,30.35
2018-07-10T10:12:33.044Z,30.21
2018-07-10T10:15:01.694Z,30.47
2018-07-10T10:17:31.255Z,30.46
2018-07-10T10:20:00.170Z,30.29
2018-07-10T10:22:30.973Z,29.30
2018-07-10T10:25:00.355Z,29.23
2018-07-10T10:27:30.019Z,30.18
2018-07-10T10:29:59.213Z,29.60
2018-07-10T10:32:27.989Z,29.23
2018-07-10T10:34:56.891Z,28.54
2018-07-10T10:37:25.535Z,28.95
2018-07-10T10:39:55.485Z,28.72
2018-07-10T10:42:24.736Z,28.38
2018-07-10T10:44:54.629Z,28.90
2018-07-10T10:47:24.241Z,29.71
2018-07-10T10:49:53.850Z,29.92
2018-07-10T10:52:22.584Z,31.32
2018-07-10T10:54:51.331Z,32.13
2018-07-10T10:57:20.058Z,32.84
2018-07-10T10:59:50.825Z,32.65
2018-07-10T11:02:20.085Z,33.45
2018-07-10T11:04:50.602Z,34.31
2018-07-10T11:07:19.721Z,35.14
2018-07-10T11:09:48.684Z,36.87
2018-07-10T11:12:17.327Z,37.59
2018-07-10T11:14:46.553Z,38.72
2018-07-10T11:17:21.291Z,44.83
2018-07-10T11:19:56.457Z,48.51
2018-07-10T11:22:25.185Z,51.08
2018-07-10T11:25:03.151Z,53.49
2018-07-10T11:27:43.690Z,56.63
2018-07-10T11:30:12.431Z,52.88
2018-07-10T11:32:41.155Z,49.08
2018-07-10T11:35:09.917Z,52.73
2018-07-10T11:37:39.102Z,58.45
2018-07-10T11:40:07.821Z,63.49
2018-07-10T11:42:37.092Z,66.16
2018-07-10T11:45:05.815Z,66.30
2018-07-10T11:47:34.882Z,68.25
2018-07-10T11:50:03.679Z,69.19
2018-07-10T11:52:32.461Z,67.98
2018-07-10T11:55:01.165Z,69.40
2018-07-10T11:57:29.925Z,71.69
2018-07-10T11:59:58.696Z,71.80
2018-07-10T12:02:41.498Z,74.97
2018-07-10T12:05:09.746Z,72.12
2018-07-10T12:07:39.717Z,73.17
2018-07-10T12:10:24.278Z,75.89
2018-07-10T12:12:53.671Z,78.58
2018-07-10T12:15:22.769Z,77.82
2018-07-10T12:17:53.714Z,76.95
2018-07-10T12:20:27.413Z,76.17
2018-07-10T12:22:56.126Z,77.66
2018-07-10T12:25:24.895Z,76.22
2018-07-10T12:27:53.758Z,77.84
2018-07-10T12:30:23.251Z,76.92
2018-07-10T12:32:51.969Z,74.96
2018-07-10T12:35:20.669Z,77.49
2018-07-10T12:37:49.359Z,75.82
2018-07-10T12:40:18.107Z,78.50
2018-07-10T12:42:46.842Z,80.46
2018-07-10T12:45:15.574Z,79.88
2018-07-10T12:47:44.276Z,80.52
2018-07-10T12:50:13.194Z,81.12
2018-07-10T12:52:41.913Z,79.82
2018-07-10T12:55:10.682Z,80.93
2018-07-10T12:57:42.468Z,81.45
2018-07-10T13:00:11.267Z,79.60
2018-07-10T13:02:43.924Z,78.87
2018-07-10T13:05:14.067Z,76.33
2018-07-10T13:07:42.838Z,77.04
2018-07-10T13:10:12.387Z,78.04
2018-07-10T13:12:41.099Z,78.43
2018-07-10T13:15:09.831Z,79.79
2018-07-10T13:17:43.639Z,80.16
2018-07-10T13:20:12.662Z,80.98
2018-07-10T13:22:41.310Z,80.50
2018-07-10T13:25:10.076Z,81.88
2018-07-10T13:27:38.713Z,82.75
2018-07-10T13:30:07.638Z,81.83
2018-07-10T13:32:37.357Z,82.59
2018-07-10T13:35:06.038Z,80.84
2018-07-10T13:37:36.816Z,81.34
2018-07-10T13:40:06.083Z,80.51
2018-07-10T13:42:47.038Z,81.60
2018-07-10T13:45:16.692Z,80.13
2018-07-10T13:47:45.355Z,79.99
2018-07-10T13:50:16.853Z,79.39
2018-07-10T13:52:45.857Z,80.86
2018-07-10T13:55:14.487Z,80.72
2018-07-10T13:58:16.338Z,79.19
2018-07-10T14:00:47.774Z,79.78
2018-07-10T14:03:16.516Z,80.68
2018-07-10T14:05:45.186Z,80.26
2018-07-10T14:08:13.862Z,79.55
2018-07-10T14:10:42.550Z,77.88
2018-07-10T14:13:11.246Z,78.97
2018-07-10T14:15:40.951Z,79.46
2018-07-10T14:18:09.715Z,78.66
2018-07-10T14:20:55.236Z,77.98
2018-07-10T14:23:23.945Z,77.62
2018-07-10T14:25:53.145Z,78.06
2018-07-10T14:28:21.948Z,76.43
2018-07-10T14:30:50.591Z,75.56
2018-07-10T14:33:19.581Z,76.62
2018-07-10T14:35:48.258Z,75.26
2018-07-10T14:38:23.910Z,75.17
2018-07-10T14:40:52.770Z,74.27
2018-07-10T14:43:27.481Z,75.31
2018-07-10T14:46:01.437Z,74.83
2018-07-10T14:48:33.846Z,73.77
2018-07-10T14:51:02.510Z,74.08
2018-07-10T14:53:31.179Z,73.05
2018-07-10T14:55:59.993Z,73.80
2018-07-10T14:58:28.653Z,73.05
2018-07-10T15:00:57.360Z,72.89
2018-07-10T15:03:26.084Z,74.66
2018-07-10T15:05:54.768Z,74.62
2018-07-10T15:08:23.477Z,75.08
2018-07-10T15:10:52.168Z,75.37
2018-07-10T15:13:20.813Z,74.42
2018-07-10T15:16:04.919Z,74.65
2018-07-10T15:18:39.456Z,75.07
2018-07-10T15:21:13.610Z,74.92
2018-07-10T15:23:42.395Z,76.03
2018-07-10T15:26:10.955Z,75.99
2018-07-10T15:28:39.650Z,76.25
2018-07-10T15:31:08.408Z,77.34
2018-07-10T15:33:37.014Z,78.37
2018-07-10T15:36:06.471Z,78.62
2018-07-10T15:38:35.334Z,78.83
2018-07-10T15:41:04.050Z,79.76
2018-07-10T15:43:32.757Z,79.47
2018-07-10T15:46:01.456Z,80.10
2018-07-10T15:48:30.099Z,81.14
2018-07-10T15:50:58.761Z,81.01
2018-07-10T15:53:27.586Z,80.58
2018-07-10T15:55:56.264Z,80.80
2018-07-10T15:58:24.904Z,81.86
2018-07-10T16:00:53.662Z,81.96
2018-07-10T16:03:22.416Z,80.66
2018-07-10T16:05:51.079Z,80.37
2018-07-10T16:08:20.729Z,79.69
2018-07-10T16:10:52.787Z,77.10
2018-07-10T16:13:22.410Z,75.12
2018-07-10T16:15:57.911Z,72.33
2018-07-10T16:18:28.645Z,73.60
2018-07-10T16:20:59.314Z,73.49
2018-07-10T16:23:28.309Z,72.44
2018-07-10T16:26:00.666Z,70.45
2018-07-10T16:28:29.187Z,67.22
2018-07-10T16:30:57.833Z,67.10
2018-07-10T16:33:32.682Z,67.48
2018-07-10T16:36:03.034Z,68.30
2018-07-10T16:38:31.948Z,69.32
2018-07-10T16:41:05.844Z,69.63
2018-07-10T16:43:34.646Z,70.07
2018-07-10T16:46:03.979Z,70.44
2018-07-10T16:48:47.953Z,71.14
2018-07-10T16:51:28.859Z,70.10
2018-07-10T16:54:00.823Z,71.14
2018-07-10T16:56:29.753Z,72.14
2018-07-10T16:58:59.121Z,72.64
2018-07-10T17:01:28.419Z,73.48
2018-07-10T17:03:58.856Z,74.20
2018-07-10T17:06:27.555Z,74.66
2018-07-10T17:08:56.354Z,75.46
2018-07-10T17:11:25.077Z,75.55
2018-07-10T17:13:53.819Z,75.94
2018-07-10T17:16:29.638Z,76.13
2018-07-10T17:18:58.493Z,75.46
2018-07-10T17:21:28.186Z,75.92
2018-07-10T17:23:57.927Z,74.29
2018-07-10T17:26:26.717Z,75.49
2018-07-10T17:28:55.559Z,75.36
2018-07-10T17:31:24.362Z,76.69
2018-07-10T17:33:53.237Z,78.80
2018-07-10T17:36:22.023Z,79.60
2018-07-10T17:38:50.945Z,80.86
2018-07-10T17:41:20.415Z,79.99
2018-07-10T17:43:49.774Z,80.59
2018-07-10T17:46:18.621Z,80.08
2018-07-10T17:48:47.710Z,80.85
2018-07-10T17:51:16.652Z,80.92
2018-07-10T17:53:45.536Z,80.66
2018-07-10T17:56:14.499Z,80.14
2018-07-10T17:58:43.178Z,80.73
2018-07-10T18:01:11.917Z,81.56
2018-07-10T18:03:41.357Z,81.64
2018-07-10T18:06:10.222Z,81.74
2018-07-10T18:08:39.072Z,82.69
2018-07-10T18:11:07.793Z,83.13
2018-07-10T18:13:36.554Z,82.84
2018-07-10T18:16:05.206Z,83.00
2018-07-10T18:18:34.039Z,82.53
2018-07-10T18:21:02.903Z,82.29
2018-07-10T18:23:31.755Z,82.88
2018-07-10T18:26:01.051Z,82.57
2018-07-10T18:28:30.004Z,82.49
2018-07-10T18:30:58.697Z,82.86
2018-07-10T18:33:27.375Z,82.40
2018-07-10T18:35:56.187Z,82.18
2018-07-10T18:38:24.920Z,83.04
2018-07-10T18:40:53.717Z,83.62
2018-07-10T18:43:22.731Z,84.57
2018-07-10T18:45:51.684Z,86.17
2018-07-10T18:48:25.552Z,86.11
2018-07-10T18:50:54.467Z,86.47
2018-07-10T18:53:23.280Z,87.20
2018-07-10T18:55:52.831Z,86.68
2018-07-10T18:58:26.660Z,87.50
2018-07-10T19:01:01.460Z,88.48
2018-07-10T19:03:31.759Z,89.47
2018-07-10T19:06:05.099Z,89.04
2018-07-10T19:08:34.032Z,88.81
2018-07-10T19:11:02.926Z,89.03
2018-07-10T19:13:31.771Z,89.49
2018-07-10T19:16:00.680Z,89.38
2018-07-10T19:18:29.506Z,88.76
2018-07-10T19:21:07.122Z,89.13
2018-07-10T19:23:45.515Z,89.80
2018-07-10T19:26:14.673Z,89.67
2018-07-10T19:28:43.589Z,89.99
2018-07-10T19:31:16.726Z,90.18
2018-07-10T19:33:49.470Z,88.89
2018-07-10T19:36:18.413Z,89.15
2018-07-10T19:38:47.397Z,88.87
2018-07-10T19:41:16.193Z,88.21
2018-07-10T19:43:45.016Z,87.41
2018-07-10T19:46:13.821Z,87.85
2018-07-10T19:48:46.629Z,86.74
2018-07-10T19:51:15.536Z,85.98
2018-07-10T19:53:47.220Z,87.37
2018-07-10T19:56:16.035Z,87.92
2018-07-10T19:58:45.464Z,89.02
2018-07-10T20:01:19.660Z,88.60
2018-07-10T20:04:03.480Z,89.01
2018-07-10T20:06:53.558Z,90.15
2018-07-10T20:09:22.508Z,90.37
2018-07-10T20:12:04.223Z,90.52
2018-07-10T20:14:40.190Z,91.23
2018-07-10T20:17:12.234Z,90.82
2018-07-10T20:19:49.375Z,91.48
2018-07-10T20:22:29.420Z,91.44
2018-07-10T20:25:08.657Z,91.32
2018-07-10T20:27:49.386Z,90.90
2018-07-10T20:31:28.050Z,91.92
2018-07-10T20:34:20.624Z,92.40
2018-07-10T20:36:54.081Z,93.05
2018-07-10T20:39:30.710Z,94.02
2018-07-10T20:41:59.430Z,94.60
2018-07-10T20:44:28.414Z,94.99
2018-07-10T20:47:02.630Z,94.70
2018-07-10T20:50:00.872Z,95.51
2018-07-10T20:52:45.669Z,95.88
2018-07-10T20:55:14.654Z,95.84
2018-07-10T20:58:05.281Z,95.66
2018-07-10T21:01:07.600Z,95.85
2018-07-10T21:03:49.149Z,96.24
2018-07-10T21:06:32.515Z,96.05
2018-07-10T21:09:11.404Z,96.58
2018-07-10T21:11:50.140Z,95.63
2018-07-10T21:14:25.660Z,94.64
2018-07-10T21:17:18.841Z,94.73
2018-07-10T21:22:03.243Z,94.73
2018-07-10T21:24:44.547Z,93.65
2018-07-10T21:27:16.629Z,94.33
2018-07-10T21:29:57.990Z,93.93
2018-07-10T21:33:04.889Z,93.90
2018-07-10T21:35:41.408Z,93.35
2018-07-10T21:38:18.161Z,94.20
2018-07-10T21:43:01.261Z,94.17
2018-07-10T21:45:43.195Z,94.85
2018-07-10T21:48:21.044Z,94.62
2018-07-10T21:50:53.354Z,94.48
2018-07-10T21:53:23.342Z,94.63
2018-07-10T21:55:52.023Z,94.99
2018-07-10T21:58:22.129Z,95.38
2018-07-10T22:02:01.838Z,95.43
2018-07-10T22:04:36.769Z,95.76
2018-07-10T22:07:06.226Z,95.60
2018-07-10T22:09:37.162Z,95.30
2018-07-10T22:12:11.073Z,95.72
2018-07-10T22:14:39.957Z,95.79
2018-07-10T22:17:14.343Z,96.31
2018-07-10T22:19:45.263Z,96.79
2018-07-10T22:22:15.763Z,96.62
2018-07-10T22:24:44.451Z,97.44
2018-07-10T22:27:14.350Z,97.21
2018-07-10T22:29:48.251Z,97.45
2018-07-10T22:32:22.191Z,98.26
2018-07-10T22:34:50.920Z,98.60
2018-07-10T22:37:19.635Z,98.45
2018-07-10T22:39:48.350Z,99.07
2018-07-10T22:42:17.031Z,99.35
2018-07-10T22:44:49.637Z,99.60
2018-07-10T22:47:22.800Z,99.92
2018-07-10T22:49:51.540Z,99.72
2018-07-10T22:52:20.363Z,99.88
2018-07-10T22:54:50.382Z,99.74
2018-07-10T22:57:19.081Z,99.87
2018-07-10T22:59:47.833Z,99.79
2018-07-10T23:02:19.443Z,99.57
2018-07-10T23:04:48.602Z,98.94
2018-07-10T23:07:17.391Z,99.17
2018-07-10T23:09:46.187Z,98.49
2018-07-10T23:12:14.939Z,98.34
2018-07-10T23:14:43.666Z,98.13
2018-07-10T23:17:12.431Z,97.98
2018-07-10T23:19:41.167Z,97.74
2018-07-10T23:22:09.850Z,98.21
2018-07-10T23:24:38.535Z,97.97
2018-07-10T23:27:07.350Z,97.64
2018-07-10T23:29:38.899Z,96.85
2018-07-10T23:32:07.804Z,97.04
2018-07-10T23:34:36.536Z,96.08
2018-07-10T23:37:09.795Z,96.08
2018-07-10T23:39:45.805Z,96.21
2018-07-10T23:42:29.447Z,96.65
2018-07-10T23:45:02.847Z,96.49
2018-07-10T23:47:33.158Z,96.20
2018-07-10T23:50:14.271Z,95.67
2018-07-10T23:54:49.383Z,95.38
2018-07-10T23:57:18.043Z,95.05
2018-07-10T23:59:46.749Z,94.89
